Main page
METAR-TAF:

METAR-TAF

Airports :

Riga International Airport

Riga, Latvia

latitude: 56-55N, longitude: 023-58E, elevation: 10 m

Current weather observation

The report was made 21 minutes ago, at 03:20 UTC
Wind 2 kt from variable directions
Temperature 20°C
Humidity 78%
Pressure 1015 hPa
Visibility 10 km or more
no clouds below 1500 m and no cumulonimbus

METAR: EVRA 150320Z VRB02KT CAVOK 20/16 Q1015 NOSIG

Time: 06:41 (03:41 UTC)

Forecast

The report was made 1 hour and 40 minutes ago, at 02:01 UTC
Forecast valid from 15 at 03 UTC to 16 at 03 UTC
Wind 7 kt from the East
Visibility 10 km or more
no clouds below 1500 m and no cumulonimbus
Temporary
from 15 at 06 UTC to 15 at 18 UTC
Scattered clouds at a height of 3500 ft, Cumulonimbus.
Probability 40% :
Temporary
from 15 at 11 UTC to 15 at 16 UTC
thunderstorm, light rain

TAF: EVRA 150201Z 1503/1603 09007KT CAVOK TEMPO 1506/1518 SCT035CB PROB40 TEMPO 1511/1516 -TSRA

Weather observations and forecasts of more than 4000 airports (METAR and TAF reports).

The available stations are represented by yellow and red dots on the map.

Hover mouse over dot to see the name of the station.

Then click to see weather observations and forecasts.

To change the map : click on the green buttons with a black cross to zoom in, on the green button with a dash to zoom out, or on the green arrows for adjacent maps.


METAR-TAF: